createdAt,value
2022-09-16T00:00:32.582Z,15.70
2022-09-16T00:02:59.578Z,15.60
2022-09-16T00:05:26.599Z,15.60
2022-09-16T00:07:54.272Z,15.60
2022-09-16T00:10:21.525Z,15.60
2022-09-16T00:12:49.445Z,15.50
2022-09-16T00:15:16.937Z,15.60
2022-09-16T00:17:43.749Z,15.50
2022-09-16T00:20:10.986Z,15.50
2022-09-16T00:22:37.810Z,15.50
2022-09-16T00:25:04.632Z,15.50
2022-09-16T00:27:31.409Z,15.50
2022-09-16T00:29:58.168Z,15.40
2022-09-16T00:32:25.050Z,15.40
2022-09-16T00:34:52.011Z,15.40
2022-09-16T00:37:18.883Z,15.40
2022-09-16T00:39:47.805Z,15.40
2022-09-16T00:42:15.537Z,15.40
2022-09-16T00:45:02.154Z,15.30
2022-09-16T00:47:36.600Z,15.30
2022-09-16T00:50:29.488Z,15.30
2022-09-16T00:52:57.968Z,15.20
2022-09-16T00:55:30.622Z,15.30
2022-09-16T00:58:04.857Z,15.20
2022-09-16T01:00:32.103Z,15.20
2022-09-16T01:02:59.260Z,15.30
2022-09-16T01:05:26.659Z,15.30
2022-09-16T01:07:54.987Z,15.20
2022-09-16T01:10:24.428Z,15.20
2022-09-16T01:12:56.844Z,15.20
2022-09-16T01:15:31.930Z,15.10
2022-09-16T01:18:18.281Z,15.20
2022-09-16T01:21:02.208Z,15.20
2022-09-16T01:23:41.037Z,15.20
2022-09-16T01:26:13.607Z,15.20
2022-09-16T01:29:05.652Z,15.10
2022-09-16T01:32:17.781Z,15.10
2022-09-16T01:35:10.333Z,15.00
2022-09-16T01:38:03.113Z,15.00
2022-09-16T01:40:41.829Z,15.00
2022-09-16T01:43:42.538Z,15.00
2022-09-16T01:46:22.307Z,15.00
2022-09-16T01:49:13.353Z,15.00
2022-09-16T01:52:03.534Z,15.00
2022-09-16T01:54:39.972Z,15.00
2022-09-16T01:57:18.416Z,15.00
2022-09-16T02:00:04.056Z,15.00
2022-09-16T02:02:38.913Z,14.90
2022-09-16T02:05:13.706Z,15.00
2022-09-16T02:07:46.438Z,15.00
2022-09-16T02:10:47.532Z,15.00
2022-09-16T02:13:26.340Z,15.00
2022-09-16T02:15:55.608Z,14.90
2022-09-16T02:18:28.118Z,14.90
2022-09-16T02:21:00.362Z,14.90
2022-09-16T02:23:33.311Z,14.90
2022-09-16T02:26:02.882Z,14.90
2022-09-16T02:28:39.405Z,14.80
2022-09-16T02:31:08.319Z,14.70
2022-09-16T02:33:44.143Z,14.70
2022-09-16T02:36:14.100Z,14.70
2022-09-16T02:38:45.321Z,14.60
2022-09-16T02:41:14.833Z,14.60
2022-09-16T02:43:42.482Z,14.60
2022-09-16T02:46:56.033Z,14.50
2022-09-16T02:49:51.243Z,14.50
2022-09-16T02:52:24.022Z,14.50
2022-09-16T02:55:14.439Z,14.50
2022-09-16T02:57:42.064Z,14.50
2022-09-16T03:00:09.618Z,14.50
2022-09-16T03:02:36.728Z,14.50
2022-09-16T03:05:04.536Z,14.50
2022-09-16T03:07:31.690Z,14.50
2022-09-16T03:09:59.183Z,14.50
2022-09-16T03:12:58.243Z,14.40
2022-09-16T03:16:03.778Z,14.40
2022-09-16T03:18:51.782Z,14.50
2022-09-16T03:21:21.342Z,14.50
2022-09-16T03:23:53.334Z,14.50
2022-09-16T03:26:39.531Z,14.40
2022-09-16T03:29:26.552Z,14.40
2022-09-16T03:32:04.529Z,14.30
2022-09-16T03:34:54.284Z,14.30
2022-09-16T03:37:23.333Z,14.20
2022-09-16T03:39:57.575Z,14.20
2022-09-16T03:42:24.553Z,14.20
2022-09-16T03:44:51.407Z,14.20
2022-09-16T03:47:19.608Z,14.10
2022-09-16T03:49:46.269Z,14.00
2022-09-16T03:52:13.068Z,14.00
2022-09-16T03:54:39.865Z,14.00
2022-09-16T03:57:07.031Z,13.90
2022-09-16T03:59:33.853Z,13.90
2022-09-16T04:02:00.646Z,13.90
2022-09-16T04:04:27.357Z,13.80
2022-09-16T04:06:54.091Z,13.80
2022-09-16T04:09:20.969Z,13.70
2022-09-16T04:11:47.671Z,13.70
2022-09-16T04:14:14.805Z,13.60
2022-09-16T04:16:45.186Z,13.60
2022-09-16T04:19:13.716Z,13.50
2022-09-16T04:21:41.971Z,13.50
2022-09-16T04:24:12.941Z,13.40
2022-09-16T04:26:40.499Z,13.40
2022-09-16T04:29:07.217Z,13.40
2022-09-16T04:31:34.308Z,13.30
2022-09-16T04:34:02.294Z,13.30
2022-09-16T04:36:28.986Z,13.30
2022-09-16T04:38:55.656Z,13.30
2022-09-16T04:41:26.247Z,13.30
2022-09-16T04:43:56.099Z,13.30
2022-09-16T04:46:24.101Z,13.30
2022-09-16T04:48:51.838Z,13.30
2022-09-16T04:51:20.085Z,13.20
2022-09-16T04:53:47.319Z,13.30
2022-09-16T04:56:17.497Z,13.20
2022-09-16T04:58:52.682Z,13.20
2022-09-16T05:01:22.758Z,13.20
2022-09-16T05:03:51.699Z,13.10
2022-09-16T05:06:21.108Z,13.10
2022-09-16T05:08:52.008Z,13.10
2022-09-16T05:11:21.058Z,13.00
2022-09-16T05:13:48.046Z,13.00
2022-09-16T05:16:17.550Z,12.90
2022-09-16T05:18:46.312Z,12.90
2022-09-16T05:21:16.221Z,12.80
2022-09-16T05:23:46.858Z,12.80
2022-09-16T05:26:17.485Z,12.80
2022-09-16T05:28:44.251Z,12.80
2022-09-16T05:31:15.372Z,12.80
2022-09-16T05:33:45.700Z,12.90
2022-09-16T05:36:15.298Z,12.90
2022-09-16T05:38:54.304Z,12.90
2022-09-16T05:41:29.229Z,13.00
2022-09-16T05:44:01.323Z,13.10
2022-09-16T05:46:28.798Z,13.20
2022-09-16T05:48:56.693Z,13.30
2022-09-16T05:51:26.235Z,13.30
2022-09-16T05:53:54.176Z,13.40
2022-09-16T05:56:26.290Z,13.50
2022-09-16T05:58:54.485Z,13.60
2022-09-16T06:01:27.265Z,13.60
2022-09-16T06:03:55.091Z,13.70
2022-09-16T06:06:28.337Z,13.80
2022-09-16T06:08:57.546Z,14.00
2022-09-16T06:11:28.416Z,14.10
2022-09-16T06:13:57.557Z,14.20
2022-09-16T06:16:28.700Z,14.30
2022-09-16T06:18:57.313Z,14.40
2022-09-16T06:21:27.723Z,14.40
2022-09-16T06:23:58.170Z,14.40
2022-09-16T06:26:26.753Z,14.60
2022-09-16T06:28:55.145Z,14.70
2022-09-16T06:31:27.091Z,14.70
2022-09-16T06:33:55.811Z,14.80
2022-09-16T06:36:25.470Z,14.90
2022-09-16T06:38:52.287Z,15.10
2022-09-16T06:41:20.273Z,15.30
2022-09-16T06:43:48.958Z,15.50
2022-09-16T06:46:18.580Z,15.50
2022-09-16T06:48:48.148Z,15.60
2022-09-16T06:51:20.027Z,15.60
2022-09-16T06:54:06.362Z,15.70
2022-09-16T06:56:35.921Z,15.60
2022-09-16T06:59:03.502Z,15.60
2022-09-16T07:01:31.123Z,15.70
2022-09-16T07:03:59.246Z,15.90
2022-09-16T07:06:52.244Z,16.10
2022-09-16T07:09:16.265Z,16.30
2022-09-16T07:11:43.060Z,16.40
2022-09-16T07:14:09.690Z,16.60
2022-09-16T07:16:36.483Z,16.80
2022-09-16T07:19:04.379Z,16.80
2022-09-16T07:21:31.518Z,16.90
2022-09-16T07:24:01.820Z,17.00
2022-09-16T07:26:31.045Z,17.00
2022-09-16T07:29:00.778Z,17.00
2022-09-16T07:31:31.105Z,17.00
2022-09-16T07:34:03.517Z,17.00
2022-09-16T07:36:49.655Z,17.00
2022-09-16T07:39:17.939Z,17.10
2022-09-16T07:41:46.584Z,17.00
2022-09-16T07:44:15.559Z,17.00
2022-09-16T07:46:42.613Z,17.00
2022-09-16T07:49:12.739Z,16.80
2022-09-16T07:51:39.492Z,16.60
2022-09-16T07:54:08.814Z,16.50
2022-09-16T07:56:37.928Z,16.60
2022-09-16T07:59:07.396Z,16.80
2022-09-16T08:01:36.339Z,17.00
2022-09-16T08:04:05.567Z,17.40
2022-09-16T08:06:33.452Z,17.70
2022-09-16T08:09:15.537Z,17.60
2022-09-16T08:11:48.088Z,17.70
2022-09-16T08:14:14.853Z,17.90
2022-09-16T08:16:41.678Z,18.10
2022-09-16T08:19:09.492Z,18.10
2022-09-16T08:21:36.199Z,18.20
2022-09-16T08:24:02.936Z,18.60
2022-09-16T08:26:29.738Z,18.80
2022-09-16T08:29:12.250Z,19.10
2022-09-16T08:31:39.271Z,19.70
2022-09-16T08:34:06.081Z,20.50
2022-09-16T08:36:33.722Z,21.60
2022-09-16T08:39:00.820Z,22.10
2022-09-16T08:41:41.484Z,22.50
2022-09-16T08:44:20.166Z,22.50
2022-09-16T08:47:01.698Z,22.60
2022-09-16T08:49:31.509Z,21.70
2022-09-16T08:52:00.252Z,21.10
2022-09-16T08:54:39.940Z,20.60
2022-09-16T08:57:13.159Z,20.50
2022-09-16T08:59:44.534Z,20.40
2022-09-16T09:02:49.077Z,20.90
2022-09-16T09:05:28.787Z,22.10
2022-09-16T09:08:13.796Z,23.40
2022-09-16T09:10:51.283Z,24.70
2022-09-16T09:13:53.587Z,25.50
2022-09-16T09:16:47.690Z,26.00
2022-09-16T09:19:32.656Z,26.00
2022-09-16T09:22:16.499Z,26.00
2022-09-16T09:24:56.677Z,27.00
2022-09-16T09:27:56.944Z,28.00
2022-09-16T09:30:26.809Z,26.00
2022-09-16T09:33:27.703Z,25.00
2022-09-16T09:36:08.284Z,24.00
2022-09-16T09:38:52.500Z,22.40
2022-09-16T09:41:22.002Z,21.30
2022-09-16T09:43:58.964Z,20.60
2022-09-16T09:46:26.468Z,21.40
2022-09-16T09:49:04.264Z,23.00
2022-09-16T09:51:37.187Z,24.90
2022-09-16T09:54:25.036Z,25.30
2022-09-16T09:56:57.275Z,26.00
2022-09-16T09:59:32.781Z,25.00
2022-09-16T10:02:01.651Z,24.50
2022-09-16T10:04:36.749Z,24.20
2022-09-16T10:07:04.485Z,24.40
2022-09-16T10:09:32.443Z,24.70
2022-09-16T10:11:59.532Z,24.60
2022-09-16T10:14:36.108Z,24.30
2022-09-16T10:17:05.603Z,24.00
2022-09-16T10:19:38.912Z,23.70
2022-09-16T10:22:25.484Z,23.20
2022-09-16T10:24:56.959Z,22.50
2022-09-16T10:27:26.874Z,21.70
2022-09-16T10:30:17.048Z,21.00
2022-09-16T10:33:12.935Z,20.40
2022-09-16T10:35:43.333Z,19.80
2022-09-16T10:38:16.795Z,19.40
2022-09-16T10:41:08.275Z,19.30
2022-09-16T10:43:38.298Z,19.00
2022-09-16T10:46:06.347Z,19.00
2022-09-16T10:48:34.807Z,19.10
2022-09-16T10:51:04.931Z,19.30
2022-09-16T10:53:39.142Z,19.60
2022-09-16T10:56:17.995Z,20.30
2022-09-16T10:58:44.980Z,21.00
2022-09-16T11:01:35.225Z,21.30
2022-09-16T11:04:40.550Z,21.70
2022-09-16T11:07:19.095Z,21.60
2022-09-16T11:10:25.091Z,21.70
2022-09-16T11:13:18.547Z,21.70
2022-09-16T11:16:18.033Z,21.80
2022-09-16T11:18:55.204Z,21.80
2022-09-16T11:21:30.979Z,21.40
2022-09-16T11:24:39.324Z,21.10
2022-09-16T11:27:12.004Z,21.00
2022-09-16T11:30:10.988Z,21.00
2022-09-16T11:33:07.824Z,20.70
2022-09-16T11:36:22.560Z,20.60
2022-09-16T11:39:10.636Z,20.50
2022-09-16T11:41:49.071Z,20.50
2022-09-16T11:44:24.539Z,20.80
2022-09-16T11:46:51.259Z,20.90
2022-09-16T11:49:35.989Z,20.90
2022-09-16T11:52:25.942Z,20.60
2022-09-16T11:55:07.911Z,20.80
2022-09-16T11:57:50.840Z,22.10
2022-09-16T12:00:19.196Z,24.70
2022-09-16T12:02:57.877Z,26.10
2022-09-16T12:05:30.158Z,27.50
2022-09-16T12:08:22.933Z,27.60
2022-09-16T12:11:00.219Z,27.90
2022-09-16T12:13:34.618Z,26.70
2022-09-16T12:16:05.501Z,25.00
2022-09-16T12:18:55.702Z,23.60
2022-09-16T12:21:30.981Z,22.30
2022-09-16T12:24:15.247Z,21.10
2022-09-16T12:27:08.124Z,20.30
2022-09-16T12:30:26.304Z,19.40
2022-09-16T12:33:25.808Z,19.20
2022-09-16T12:36:00.281Z,20.10
2022-09-16T12:38:27.047Z,21.10
2022-09-16T12:41:24.779Z,22.40
2022-09-16T12:44:30.440Z,23.80
2022-09-16T12:47:35.148Z,25.20
2022-09-16T12:50:25.334Z,27.50
2022-09-16T12:53:12.347Z,29.10
2022-09-16T12:56:24.266Z,30.00
2022-09-16T12:59:16.894Z,31.30
2022-09-16T13:01:48.227Z,30.00
2022-09-16T13:04:40.260Z,28.70
2022-09-16T13:07:08.794Z,26.50
2022-09-16T13:09:38.299Z,24.30
2022-09-16T13:12:44.452Z,23.40
2022-09-16T13:15:31.682Z,22.70
2022-09-16T13:18:26.854Z,22.60
2022-09-16T13:21:00.113Z,23.30
2022-09-16T13:23:34.429Z,25.30
2022-09-16T13:26:07.371Z,26.40
2022-09-16T13:28:38.348Z,27.10
2022-09-16T13:31:14.437Z,28.70
2022-09-16T13:34:00.139Z,30.50
2022-09-16T13:36:26.950Z,30.90
2022-09-16T13:38:56.079Z,30.50
2022-09-16T13:41:49.119Z,29.60
2022-09-16T13:44:37.001Z,27.10
2022-09-16T13:47:09.743Z,25.90
2022-09-16T13:49:51.013Z,25.90
2022-09-16T13:52:32.642Z,24.90
2022-09-16T13:55:12.489Z,23.40
2022-09-16T13:57:58.383Z,22.20
2022-09-16T14:00:45.815Z,21.10
2022-09-16T14:03:24.774Z,19.90
2022-09-16T14:06:31.248Z,20.30
2022-09-16T14:09:03.344Z,22.80
2022-09-16T14:11:49.425Z,24.50
2022-09-16T14:17:19.579Z,25.70
2022-09-16T14:19:48.419Z,24.90
2022-09-16T14:22:17.631Z,24.40
2022-09-16T14:24:46.162Z,23.40
2022-09-16T14:27:34.085Z,22.80
2022-09-16T14:30:04.869Z,21.80
2022-09-16T14:32:37.689Z,21.20
2022-09-16T14:35:18.821Z,20.40
2022-09-16T14:37:48.482Z,19.70
2022-09-16T14:40:18.937Z,19.10
2022-09-16T14:42:51.870Z,18.50
2022-09-16T14:45:20.347Z,18.30
2022-09-16T14:47:52.790Z,18.10
2022-09-16T14:50:27.589Z,18.10
2022-09-16T14:53:01.601Z,18.40
2022-09-16T14:55:31.295Z,19.40
2022-09-16T14:57:59.796Z,20.50
2022-09-16T15:00:37.932Z,22.20
2022-09-16T15:03:17.468Z,23.90
2022-09-16T15:05:46.518Z,24.90
2022-09-16T15:08:28.181Z,23.70
2022-09-16T15:10:58.716Z,22.80
2022-09-16T15:13:34.803Z,21.70
2022-09-16T15:16:07.371Z,20.60
2022-09-16T15:18:37.186Z,19.60
2022-09-16T15:21:23.821Z,18.70
2022-09-16T15:23:53.407Z,18.10
2022-09-16T15:26:23.103Z,17.60
2022-09-16T15:29:20.579Z,17.40
2022-09-16T15:31:48.024Z,17.30
2022-09-16T15:34:18.585Z,17.00
2022-09-16T15:36:47.921Z,16.90
2022-09-16T15:39:35.285Z,16.90
2022-09-16T15:42:18.845Z,17.10
2022-09-16T15:44:50.514Z,16.90
2022-09-16T15:47:27.782Z,16.80
2022-09-16T15:50:15.544Z,16.40
2022-09-16T15:53:09.873Z,16.30
2022-09-16T15:55:43.032Z,16.20
2022-09-16T15:58:09.844Z,15.70
2022-09-16T16:00:58.247Z,15.60
2022-09-16T16:03:25.191Z,15.40
2022-09-16T16:05:52.946Z,15.40
2022-09-16T16:08:48.216Z,15.20
2022-09-16T16:11:18.117Z,15.00
2022-09-16T16:13:45.747Z,14.90
2022-09-16T16:16:14.877Z,14.90
2022-09-16T16:18:45.834Z,15.80
2022-09-16T16:21:16.041Z,17.30
2022-09-16T16:23:43.523Z,18.80
2022-09-16T16:26:11.224Z,19.80
2022-09-16T16:28:38.641Z,20.00
2022-09-16T16:31:16.941Z,19.70
2022-09-16T16:33:45.221Z,20.10
2022-09-16T16:36:14.409Z,20.30
2022-09-16T16:38:41.733Z,20.40
2022-09-16T16:41:09.178Z,20.40
2022-09-16T16:43:35.979Z,20.20
2022-09-16T16:46:02.923Z,19.30
2022-09-16T16:48:30.563Z,18.50
2022-09-16T16:51:03.417Z,17.30
2022-09-16T16:53:30.699Z,16.50
2022-09-16T16:56:15.176Z,16.50
2022-09-16T16:58:43.509Z,16.90
2022-09-16T17:01:16.335Z,17.20
2022-09-16T17:03:49.530Z,17.50
2022-09-16T17:06:17.134Z,17.60
2022-09-16T17:08:43.885Z,17.20
2022-09-16T17:11:16.028Z,16.30
2022-09-16T17:13:44.563Z,15.90
2022-09-16T17:16:13.371Z,15.60
2022-09-16T17:18:41.841Z,15.30
2022-09-16T17:21:14.476Z,14.90
2022-09-16T17:23:41.545Z,14.60
2022-09-16T17:26:09.230Z,14.30
2022-09-16T17:28:38.784Z,14.00
2022-09-16T17:31:33.362Z,13.80
2022-09-16T17:34:03.075Z,13.50
2022-09-16T17:36:31.060Z,13.30
2022-09-16T17:38:59.610Z,13.20
2022-09-16T17:41:27.171Z,13.00
2022-09-16T17:43:55.978Z,12.90
2022-09-16T17:46:27.109Z,12.90
2022-09-16T17:49:00.138Z,12.70
2022-09-16T17:51:27.242Z,12.70
2022-09-16T17:53:53.972Z,12.60
2022-09-16T17:56:20.873Z,12.50
2022-09-16T17:58:47.920Z,12.40
2022-09-16T18:01:20.710Z,12.30
2022-09-16T18:03:50.712Z,12.30
2022-09-16T18:06:20.774Z,12.20
2022-09-16T18:08:48.273Z,12.20
2022-09-16T18:11:16.514Z,12.10
2022-09-16T18:13:46.226Z,12.20
2022-09-16T18:16:16.259Z,12.10
2022-09-16T18:18:44.352Z,12.10
2022-09-16T18:21:15.104Z,12.10
2022-09-16T18:23:42.458Z,12.10
2022-09-16T18:26:12.640Z,12.10
2022-09-16T18:29:05.418Z,12.00
2022-09-16T18:31:28.491Z,12.00
2022-09-16T18:33:55.888Z,11.90
2022-09-16T18:36:25.686Z,11.80
2022-09-16T18:38:54.125Z,11.70
2022-09-16T18:41:23.340Z,11.60
2022-09-16T18:43:59.710Z,11.50
2022-09-16T18:46:31.983Z,11.40
2022-09-16T18:48:59.454Z,11.30
2022-09-16T18:51:29.181Z,11.20
2022-09-16T18:54:00.496Z,11.10
2022-09-16T18:56:29.291Z,11.10
2022-09-16T18:59:23.032Z,11.10
2022-09-16T19:01:55.448Z,11.00
2022-09-16T19:04:28.069Z,11.00
2022-09-16T19:06:59.135Z,11.00
2022-09-16T19:09:25.990Z,11.00
2022-09-16T19:11:53.029Z,11.00
2022-09-16T19:14:22.384Z,10.90
2022-09-16T19:16:49.179Z,10.90
2022-09-16T19:19:16.747Z,10.80
2022-09-16T19:21:43.775Z,10.80
2022-09-16T19:24:28.374Z,10.80
2022-09-16T19:26:55.696Z,10.80
2022-09-16T19:29:22.595Z,10.70
2022-09-16T19:31:52.020Z,10.70
2022-09-16T19:34:19.481Z,10.70
2022-09-16T19:36:46.586Z,10.70
2022-09-16T19:39:13.795Z,10.60
2022-09-16T19:41:41.541Z,10.60
2022-09-16T19:44:13.082Z,10.60
2022-09-16T19:46:42.548Z,10.60
2022-09-16T19:49:14.217Z,10.60
2022-09-16T19:51:40.964Z,10.60
2022-09-16T19:54:07.914Z,10.60
2022-09-16T19:56:34.626Z,10.60
2022-09-16T19:59:01.899Z,10.60
2022-09-16T20:01:31.811Z,10.60
2022-09-16T20:03:59.609Z,10.60
2022-09-16T20:06:29.103Z,10.60
2022-09-16T20:09:01.081Z,10.60
2022-09-16T20:11:31.933Z,10.70
2022-09-16T20:14:02.184Z,10.60
2022-09-16T20:16:38.187Z,10.60
2022-09-16T20:19:09.887Z,10.60
2022-09-16T20:21:37.845Z,10.60
2022-09-16T20:24:06.529Z,10.50
2022-09-16T20:26:34.462Z,10.50
2022-09-16T20:29:01.615Z,10.50
2022-09-16T20:31:31.653Z,10.50
2022-09-16T20:33:58.814Z,10.40
2022-09-16T20:36:27.508Z,10.40
2022-09-16T20:38:54.442Z,10.40
2022-09-16T20:41:26.518Z,10.40
2022-09-16T20:43:53.336Z,10.40
2022-09-16T20:46:25.804Z,10.40
2022-09-16T20:48:56.695Z,10.40
2022-09-16T20:51:28.661Z,10.40
2022-09-16T20:53:58.391Z,10.40
2022-09-16T20:56:26.855Z,10.40
2022-09-16T20:58:53.745Z,10.40
2022-09-16T21:01:26.706Z,10.50
2022-09-16T21:03:59.045Z,10.50
2022-09-16T21:06:27.151Z,10.50
2022-09-16T21:08:55.554Z,10.50
2022-09-16T21:11:23.125Z,10.50
2022-09-16T21:13:58.316Z,10.50
2022-09-16T21:16:27.042Z,10.50
2022-09-16T21:18:58.372Z,10.40
2022-09-16T21:21:27.935Z,10.50
2022-09-16T21:23:56.480Z,10.40
2022-09-16T21:26:34.608Z,10.40
2022-09-16T21:29:13.538Z,10.40
2022-09-16T21:31:41.958Z,10.30
2022-09-16T21:34:17.345Z,10.30
2022-09-16T21:36:45.151Z,10.20
2022-09-16T21:39:16.185Z,10.20
2022-09-16T21:41:44.283Z,10.10
2022-09-16T21:44:11.940Z,10.00
2022-09-16T21:46:42.493Z,10.00
2022-09-16T21:49:25.817Z,9.90
2022-09-16T21:51:54.828Z,9.90
2022-09-16T21:54:22.354Z,9.90
2022-09-16T21:56:50.047Z,9.90
2022-09-16T21:59:19.503Z,9.80
2022-09-16T22:01:46.393Z,9.80
2022-09-16T22:04:19.188Z,9.80
2022-09-16T22:06:45.987Z,9.70
2022-09-16T22:09:12.859Z,9.70
2022-09-16T22:11:41.312Z,9.60
2022-09-16T22:14:08.756Z,9.50
2022-09-16T22:16:37.765Z,9.50
2022-09-16T22:19:11.373Z,9.40
2022-09-16T22:21:41.042Z,9.30
2022-09-16T22:24:08.783Z,9.30
2022-09-16T22:26:36.474Z,9.20
2022-09-16T22:29:04.029Z,9.20
2022-09-16T22:31:32.366Z,9.20
2022-09-16T22:34:01.265Z,9.20
2022-09-16T22:36:31.192Z,9.20
2022-09-16T22:39:01.432Z,9.10
2022-09-16T22:41:29.108Z,9.10
2022-09-16T22:43:56.500Z,9.10
2022-09-16T22:46:33.119Z,9.10
2022-09-16T22:49:00.267Z,9.00
2022-09-16T22:51:27.752Z,9.10
2022-09-16T22:53:55.241Z,9.00
2022-09-16T22:56:25.019Z,8.90
2022-09-16T22:58:53.737Z,8.90
2022-09-16T23:01:24.293Z,8.80
2022-09-16T23:03:56.190Z,8.80
2022-09-16T23:06:26.669Z,8.80
2022-09-16T23:08:53.833Z,8.70
2022-09-16T23:11:26.714Z,8.60
2022-09-16T23:13:54.075Z,8.70
2022-09-16T23:16:27.010Z,8.60
2022-09-16T23:18:55.664Z,8.60
2022-09-16T23:21:23.528Z,8.60
2022-09-16T23:23:55.660Z,8.60
2022-09-16T23:26:24.440Z,8.60
2022-09-16T23:28:53.586Z,8.60
2022-09-16T23:31:22.811Z,8.60
2022-09-16T23:33:49.543Z,8.50
2022-09-16T23:36:18.028Z,8.50
2022-09-16T23:38:45.850Z,8.50
2022-09-16T23:41:19.803Z,8.40
2022-09-16T23:43:48.487Z,8.40
2022-09-16T23:46:17.728Z,8.40
2022-09-16T23:48:45.243Z,8.40
2022-09-16T23:51:12.946Z,8.40
2022-09-16T23:53:42.410Z,8.40
2022-09-16T23:56:11.136Z,8.40
2022-09-16T23:58:39.002Z,8.40
